createdAt,value
2022-12-01T00:01:03.728Z,22.00
2022-12-01T00:03:31.554Z,21.55
2022-12-01T00:05:58.856Z,23.05
2022-12-01T00:08:25.481Z,21.03
2022-12-01T00:10:52.529Z,22.23
2022-12-01T00:13:19.218Z,20.85
2022-12-01T00:15:45.971Z,21.83
2022-12-01T00:18:13.947Z,23.05
2022-12-01T00:20:40.623Z,24.02
2022-12-01T00:23:07.299Z,20.45
2022-12-01T00:25:33.930Z,23.67
2022-12-01T00:28:00.553Z,23.38
2022-12-01T00:30:27.167Z,21.02
2022-12-01T00:32:53.740Z,23.63
2022-12-01T00:35:21.723Z,23.55
2022-12-01T00:37:48.367Z,22.90
2022-12-01T00:40:15.076Z,24.02
2022-12-01T00:42:41.719Z,23.88
2022-12-01T00:45:09.621Z,21.23
2022-12-01T00:47:36.257Z,23.85
2022-12-01T00:50:03.579Z,24.50
2022-12-01T00:52:31.514Z,23.13
2022-12-01T00:54:58.179Z,26.23
2022-12-01T00:57:24.850Z,22.35
2022-12-01T00:59:51.511Z,23.58
2022-12-01T01:02:18.915Z,23.40
2022-12-01T01:04:45.653Z,23.88
2022-12-01T01:07:12.280Z,22.25
2022-12-01T01:09:40.283Z,24.73
2022-12-01T01:12:07.085Z,20.83
2022-12-01T01:14:33.953Z,21.17
2022-12-01T01:17:00.622Z,24.10
2022-12-01T01:19:27.314Z,22.08
2022-12-01T01:21:53.910Z,22.20
2022-12-01T01:24:20.519Z,23.33
2022-12-01T01:26:48.513Z,23.52
2022-12-01T01:29:15.113Z,24.63
2022-12-01T01:31:41.809Z,24.45
2022-12-01T01:34:08.492Z,23.77
2022-12-01T01:36:35.153Z,22.90
2022-12-01T01:39:01.913Z,23.95
2022-12-01T01:41:28.891Z,22.27
2022-12-01T01:43:58.910Z,22.42
2022-12-01T01:46:27.860Z,24.10
2022-12-01T01:48:59.036Z,23.65
2022-12-01T01:51:29.732Z,22.25
2022-12-01T01:54:02.063Z,19.67
2022-12-01T01:56:29.695Z,22.70
2022-12-01T01:58:58.723Z,23.08
2022-12-01T02:01:25.368Z,24.08
2022-12-01T02:03:53.703Z,24.20
2022-12-01T02:06:21.888Z,21.25
2022-12-01T02:08:48.615Z,27.05
2022-12-01T02:11:37.310Z,25.83
2022-12-01T02:14:13.020Z,23.55
2022-12-01T02:16:49.463Z,23.38
2022-12-01T02:19:38.869Z,22.50
2022-12-01T02:22:19.406Z,25.27
2022-12-01T02:25:03.099Z,26.88
2022-12-01T02:27:42.465Z,23.20
2022-12-01T02:30:13.002Z,23.98
2022-12-01T02:33:05.475Z,24.77
2022-12-01T02:35:39.298Z,23.95
2022-12-01T02:38:15.537Z,23.23
2022-12-01T02:40:49.292Z,20.70
2022-12-01T02:43:21.909Z,24.08
2022-12-01T02:45:52.516Z,23.52
2022-12-01T02:48:25.931Z,23.80
2022-12-01T02:50:54.726Z,23.58
2022-12-01T02:53:21.782Z,23.88
2022-12-01T02:55:51.539Z,25.52
2022-12-01T02:58:18.424Z,22.00
2022-12-01T03:00:59.054Z,21.70
2022-12-01T03:06:07.931Z,21.65
2022-12-01T03:08:45.622Z,23.25
2022-12-01T03:11:16.462Z,23.42
2022-12-01T03:13:52.456Z,26.35
2022-12-01T03:16:26.633Z,24.20
2022-12-01T03:18:59.582Z,20.23
2022-12-01T03:21:32.459Z,23.17
2022-12-01T03:24:03.848Z,26.70
2022-12-01T03:26:32.835Z,24.52
2022-12-01T03:29:05.528Z,22.47
2022-12-01T03:31:35.184Z,24.88
2022-12-01T03:34:07.926Z,21.77
2022-12-01T03:36:37.671Z,22.45
2022-12-01T03:39:10.050Z,24.42
2022-12-01T03:41:42.096Z,24.42
2022-12-01T03:44:12.161Z,23.27
2022-12-01T03:46:45.866Z,23.73
2022-12-01T03:49:15.202Z,22.60
2022-12-01T03:51:51.997Z,24.13
2022-12-01T03:54:22.944Z,24.67
2022-12-01T03:56:55.238Z,26.23
2022-12-01T03:59:24.105Z,22.85
2022-12-01T04:01:51.221Z,23.90
2022-12-01T04:04:19.407Z,23.00
2022-12-01T04:06:48.469Z,22.97
2022-12-01T04:09:15.067Z,29.83
2022-12-01T04:11:41.790Z,25.80
2022-12-01T04:14:08.424Z,24.70
2022-12-01T04:16:35.200Z,26.48
2022-12-01T04:19:01.944Z,22.43
2022-12-01T04:21:29.953Z,23.55
2022-12-01T04:23:56.574Z,25.52
2022-12-01T04:26:23.232Z,25.20
2022-12-01T04:28:49.840Z,21.38
2022-12-01T04:31:16.693Z,24.10
2022-12-01T04:33:43.296Z,24.08
2022-12-01T04:36:10.514Z,23.23
2022-12-01T04:38:38.513Z,26.25
2022-12-01T04:41:08.750Z,24.20
2022-12-01T04:43:35.357Z,22.60
2022-12-01T04:46:02.687Z,23.10
2022-12-01T04:48:29.276Z,22.20
2022-12-01T04:50:55.943Z,20.00
2022-12-01T04:53:22.549Z,23.63
2022-12-01T04:55:50.562Z,23.43
2022-12-01T04:58:17.266Z,21.17
2022-12-01T05:00:44.087Z,26.50
2022-12-01T05:03:14.922Z,23.27
2022-12-01T05:05:41.883Z,24.40
2022-12-01T05:08:08.681Z,25.17
2022-12-01T05:10:35.513Z,24.75
2022-12-01T05:13:04.645Z,26.83
2022-12-01T05:15:31.720Z,24.55
2022-12-01T05:17:58.397Z,25.13
2022-12-01T05:20:26.070Z,24.87
2022-12-01T05:23:10.795Z,26.83
2022-12-01T05:25:38.815Z,26.50
2022-12-01T05:28:06.912Z,26.63
2022-12-01T05:30:35.306Z,25.80
2022-12-01T05:33:02.026Z,25.77
2022-12-01T05:35:28.716Z,23.20
2022-12-01T05:37:55.333Z,20.65
2022-12-01T05:40:22.002Z,26.15
2022-12-01T05:42:48.593Z,23.52
2022-12-01T05:45:16.645Z,25.53
2022-12-01T05:47:43.262Z,25.48
2022-12-01T05:50:10.801Z,21.50
2022-12-01T05:52:37.458Z,26.13
2022-12-01T05:55:04.427Z,27.90
2022-12-01T05:57:31.309Z,27.17
2022-12-01T05:59:58.305Z,24.20
2022-12-01T06:02:26.508Z,24.70
2022-12-01T06:04:53.193Z,25.10
2022-12-01T06:07:19.974Z,21.90
2022-12-01T06:09:46.869Z,27.08
2022-12-01T06:12:13.731Z,27.90
2022-12-01T06:14:40.544Z,25.92
2022-12-01T06:17:07.218Z,24.85
2022-12-01T06:19:35.180Z,25.88
2022-12-01T06:22:01.888Z,22.87
2022-12-01T06:24:28.479Z,21.85
2022-12-01T06:26:55.136Z,28.40
2022-12-01T06:29:21.810Z,26.45
2022-12-01T06:31:48.517Z,27.02
2022-12-01T06:34:15.208Z,26.55
2022-12-01T06:36:43.201Z,24.77
2022-12-01T06:39:10.112Z,21.85
2022-12-01T06:41:36.796Z,25.98
2022-12-01T06:44:04.006Z,24.80
2022-12-01T06:46:30.945Z,28.03
2022-12-01T06:48:57.727Z,26.48
2022-12-01T06:51:24.501Z,24.23
2022-12-01T06:53:54.700Z,23.17
2022-12-01T06:56:21.579Z,24.90
2022-12-01T06:58:49.067Z,25.23
2022-12-01T07:01:16.159Z,26.88
2022-12-01T07:03:42.776Z,22.67
2022-12-01T07:06:09.736Z,25.30
2022-12-01T07:08:36.451Z,26.50
2022-12-01T07:11:06.383Z,27.27
2022-12-01T07:13:34.572Z,23.73
2022-12-01T07:16:01.919Z,25.00
2022-12-01T07:18:28.638Z,25.95
2022-12-01T07:20:59.560Z,27.48
2022-12-01T07:23:26.192Z,23.13
2022-12-01T07:25:58.797Z,25.10
2022-12-01T07:28:27.119Z,24.48
2022-12-01T07:30:53.761Z,24.92
2022-12-01T07:33:20.510Z,23.33
2022-12-01T07:35:47.105Z,26.83
2022-12-01T07:38:16.598Z,24.45
2022-12-01T07:40:47.241Z,24.80
2022-12-01T07:43:13.914Z,23.65
2022-12-01T07:45:41.911Z,23.90
2022-12-01T07:48:08.616Z,23.17
2022-12-01T07:50:35.317Z,27.20
2022-12-01T07:53:05.120Z,26.13
2022-12-01T07:55:31.702Z,23.67
2022-12-01T07:57:59.484Z,25.33
2022-12-01T08:00:26.186Z,24.73
2022-12-01T08:02:54.478Z,25.42
2022-12-01T08:05:21.187Z,25.88
2022-12-01T08:07:47.946Z,22.92
2022-12-01T08:10:14.836Z,26.48
2022-12-01T08:12:41.427Z,22.98
2022-12-01T08:15:08.845Z,24.25
2022-12-01T08:17:35.475Z,25.08
2022-12-01T08:20:04.116Z,24.20
2022-12-01T08:22:30.720Z,24.50
2022-12-01T08:24:57.436Z,23.25
2022-12-01T08:27:24.079Z,24.23
2022-12-01T08:29:50.821Z,25.20
2022-12-01T08:32:18.342Z,21.30
2022-12-01T08:34:47.253Z,23.48
2022-12-01T08:37:19.939Z,32.67
2022-12-01T08:39:46.780Z,28.92
2022-12-01T08:42:13.570Z,23.67
2022-12-01T08:44:40.535Z,26.75
2022-12-01T08:47:07.349Z,24.85
2022-12-01T08:49:33.992Z,23.80
2022-12-01T08:52:00.766Z,22.25
2022-12-01T08:54:28.827Z,25.23
2022-12-01T08:56:55.458Z,23.40
2022-12-01T08:59:22.050Z,25.35
2022-12-01T09:01:48.750Z,32.55
2022-12-01T09:04:15.383Z,25.73
2022-12-01T09:06:43.658Z,23.50
2022-12-01T09:09:12.585Z,26.58
2022-12-01T09:11:41.758Z,22.90
2022-12-01T09:14:08.378Z,26.10
2022-12-01T09:16:35.267Z,22.98
2022-12-01T09:19:02.197Z,29.95
2022-12-01T09:21:31.967Z,22.60
2022-12-01T09:23:59.070Z,31.92
2022-12-01T09:26:25.887Z,24.38
2022-12-01T09:28:55.586Z,22.63
2022-12-01T09:31:23.052Z,25.20
2022-12-01T09:33:54.654Z,25.20
2022-12-01T09:36:21.292Z,23.33
2022-12-01T09:38:47.862Z,23.38
2022-12-01T09:41:19.091Z,21.05
2022-12-01T09:43:48.618Z,27.10
2022-12-01T09:46:22.642Z,25.10
2022-12-01T09:48:52.936Z,26.73
2022-12-01T09:51:22.067Z,25.52
2022-12-01T09:53:51.304Z,29.15
2022-12-01T09:56:22.291Z,27.45
2022-12-01T09:58:54.795Z,27.20
2022-12-01T10:01:30.588Z,27.15
2022-12-01T10:04:02.297Z,26.75
2022-12-01T10:06:34.401Z,27.23
2022-12-01T10:09:13.818Z,28.67
2022-12-01T10:11:42.040Z,27.50
2022-12-01T10:14:19.664Z,27.58
2022-12-01T10:16:59.652Z,29.92
2022-12-01T10:19:36.010Z,28.20
2022-12-01T10:22:45.235Z,27.17
2022-12-01T10:25:20.990Z,30.50
2022-12-01T10:27:59.617Z,26.85
2022-12-01T10:30:26.483Z,30.08
2022-12-01T10:32:56.364Z,31.23
2022-12-01T10:35:26.646Z,31.08
2022-12-01T10:37:56.147Z,30.02
2022-12-01T10:40:27.199Z,27.65
2022-12-01T10:42:54.245Z,29.40
2022-12-01T10:45:23.826Z,29.63
2022-12-01T10:48:12.238Z,27.40
2022-12-01T10:50:39.123Z,34.10
2022-12-01T10:53:05.732Z,28.80
2022-12-01T10:55:34.853Z,26.73
2022-12-01T10:58:12.453Z,28.83
2022-12-01T11:00:59.599Z,30.58
2022-12-01T11:03:31.193Z,27.60
2022-12-01T11:06:00.576Z,27.80
2022-12-01T11:08:34.723Z,30.65
2022-12-01T11:11:02.128Z,27.98
2022-12-01T11:13:31.541Z,31.02
2022-12-01T11:16:00.260Z,27.55
2022-12-01T11:18:33.217Z,28.77
2022-12-01T11:21:09.892Z,29.35
2022-12-01T11:23:38.818Z,24.20
2022-12-01T11:26:10.666Z,29.95
2022-12-01T11:28:40.862Z,27.27
2022-12-01T11:31:09.299Z,27.85
2022-12-01T11:33:45.137Z,26.08
2022-12-01T11:36:21.549Z,24.08
2022-12-01T11:38:49.198Z,26.67
2022-12-01T11:41:28.415Z,26.38
2022-12-01T11:44:01.573Z,25.63
2022-12-01T11:46:32.042Z,23.95
2022-12-01T11:49:01.694Z,25.27
2022-12-01T11:51:31.980Z,26.15
2022-12-01T11:54:12.327Z,28.98
2022-12-01T11:56:39.223Z,25.70
2022-12-01T11:59:10.685Z,26.83
2022-12-01T12:01:50.521Z,25.67
2022-12-01T12:04:42.736Z,22.98
2022-12-01T12:07:17.205Z,25.23
2022-12-01T12:10:03.002Z,23.77
2022-12-01T12:12:42.366Z,24.35
2022-12-01T12:15:20.696Z,26.83
2022-12-01T12:18:03.578Z,25.58
2022-12-01T12:20:45.450Z,26.38
2022-12-01T12:23:32.184Z,24.42
2022-12-01T12:26:07.109Z,25.17
2022-12-01T12:28:51.071Z,24.70
2022-12-01T12:31:28.242Z,26.30
2022-12-01T12:34:16.037Z,22.38
2022-12-01T12:36:56.542Z,23.77
2022-12-01T12:39:40.731Z,25.73
2022-12-01T12:42:13.932Z,26.23
2022-12-01T12:44:50.139Z,25.38
2022-12-01T12:47:26.363Z,21.30
2022-12-01T12:50:03.731Z,29.13
2022-12-01T12:52:36.835Z,24.92
2022-12-01T12:55:13.496Z,23.85
2022-12-01T12:57:45.726Z,27.80
2022-12-01T13:00:16.971Z,27.35
2022-12-01T13:02:48.411Z,27.25
2022-12-01T13:05:21.876Z,23.20
2022-12-01T13:07:55.114Z,25.60
2022-12-01T13:10:28.505Z,27.15
2022-12-01T13:13:00.309Z,24.52
2022-12-01T13:15:28.806Z,24.65
2022-12-01T13:18:03.228Z,25.00
2022-12-01T13:20:36.240Z,22.73
2022-12-01T13:23:05.034Z,27.38
2022-12-01T13:25:35.096Z,24.25
2022-12-01T13:28:04.628Z,24.23
2022-12-01T13:30:31.463Z,25.88
2022-12-01T13:33:00.981Z,23.02
2022-12-01T13:35:31.010Z,30.48
2022-12-01T13:38:21.848Z,27.15
2022-12-01T13:40:49.127Z,28.30
2022-12-01T13:43:19.801Z,23.60
2022-12-01T13:45:48.484Z,26.10
2022-12-01T13:48:28.422Z,26.63
2022-12-01T13:51:01.188Z,25.63
2022-12-01T13:53:31.592Z,25.25
2022-12-01T13:56:06.437Z,23.73
2022-12-01T13:58:54.682Z,22.48
2022-12-01T14:01:44.555Z,26.10
2022-12-01T14:04:31.752Z,26.50
2022-12-01T14:07:31.388Z,24.67
2022-12-01T14:10:22.787Z,26.10
2022-12-01T14:12:51.137Z,22.33
2022-12-01T14:15:28.994Z,22.45
2022-12-01T14:18:02.305Z,23.70
2022-12-01T14:20:33.085Z,27.63
2022-12-01T14:23:19.571Z,25.45
2022-12-01T14:26:03.748Z,22.38
2022-12-01T14:29:18.597Z,24.05
2022-12-01T14:32:22.075Z,21.42
2022-12-01T14:35:13.000Z,21.83
2022-12-01T14:37:49.950Z,20.88
2022-12-01T14:40:22.036Z,21.83
2022-12-01T14:42:53.587Z,22.40
2022-12-01T14:45:25.022Z,22.58
2022-12-01T14:47:59.649Z,20.60
2022-12-01T14:50:34.656Z,20.65
2022-12-01T14:53:12.125Z,23.42
2022-12-01T14:55:42.688Z,22.25
2022-12-01T14:58:17.227Z,23.45
2022-12-01T15:00:56.669Z,19.67
2022-12-01T15:03:32.088Z,22.35
2022-12-01T15:05:59.329Z,21.13
2022-12-01T15:11:21.437Z,21.30
2022-12-01T15:13:51.792Z,21.48
2022-12-01T15:16:20.369Z,21.42
2022-12-01T15:18:47.490Z,23.85
2022-12-01T15:21:19.573Z,23.95
2022-12-01T15:23:56.890Z,23.17
2022-12-01T15:26:25.418Z,21.40
2022-12-01T15:29:12.590Z,22.90
2022-12-01T15:31:39.911Z,21.85
2022-12-01T15:34:14.277Z,21.95
2022-12-01T15:36:41.308Z,20.10
2022-12-01T15:39:13.447Z,23.90
2022-12-01T15:41:43.105Z,23.50
2022-12-01T15:44:19.896Z,18.20
2022-12-01T15:46:46.532Z,22.05
2022-12-01T15:49:18.276Z,21.50
2022-12-01T15:51:45.312Z,20.33
2022-12-01T15:54:19.093Z,22.77
2022-12-01T15:56:46.544Z,21.40
2022-12-01T15:59:33.232Z,20.50
2022-12-01T16:02:06.474Z,22.08
2022-12-01T16:04:33.324Z,22.65
2022-12-01T16:07:04.131Z,23.88
2022-12-01T16:09:34.607Z,21.65
2022-12-01T16:12:20.664Z,23.48
2022-12-01T16:14:55.879Z,24.13
2022-12-01T16:17:23.665Z,23.80
2022-12-01T16:20:31.901Z,27.45
2022-12-01T16:23:00.465Z,23.45
2022-12-01T16:25:34.331Z,24.25
2022-12-01T16:28:01.858Z,28.27
2022-12-01T16:30:36.266Z,29.58
2022-12-01T16:33:13.222Z,23.10
2022-12-01T16:35:39.891Z,21.48
2022-12-01T16:38:12.536Z,23.02
2022-12-01T16:40:40.944Z,24.38
2022-12-01T16:43:13.196Z,23.95
2022-12-01T16:45:41.373Z,24.20
2022-12-01T16:48:09.517Z,24.38
2022-12-01T16:50:36.674Z,23.48
2022-12-01T16:53:03.901Z,19.77
2022-12-01T16:55:40.293Z,20.58
2022-12-01T16:58:07.759Z,20.83
2022-12-01T17:00:34.517Z,20.15
2022-12-01T17:03:02.761Z,21.63
2022-12-01T17:05:29.606Z,23.52
2022-12-01T17:07:56.521Z,22.05
2022-12-01T17:10:23.327Z,20.42
2022-12-01T17:12:50.050Z,20.00
2022-12-01T17:15:16.865Z,23.30
2022-12-01T17:17:43.792Z,22.23
2022-12-01T17:20:12.660Z,23.17
2022-12-01T17:22:39.445Z,24.07
2022-12-01T17:25:07.474Z,17.67
2022-12-01T17:27:34.257Z,21.70
2022-12-01T17:30:00.867Z,20.63
2022-12-01T17:32:28.026Z,21.77
2022-12-01T17:34:54.787Z,22.50
2022-12-01T17:37:23.066Z,20.92
2022-12-01T17:39:50.273Z,19.55
2022-12-01T17:42:17.243Z,21.65
2022-12-01T17:44:44.098Z,21.50
2022-12-01T17:47:10.792Z,20.73
2022-12-01T17:49:40.802Z,25.25
2022-12-01T17:52:07.714Z,19.70
2022-12-01T17:54:35.746Z,22.98
2022-12-01T17:57:02.819Z,22.20
2022-12-01T17:59:29.479Z,19.60
2022-12-01T18:01:56.238Z,22.85
2022-12-01T18:04:22.991Z,25.00
2022-12-01T18:06:54.056Z,29.75
2022-12-01T18:09:21.755Z,32.72
2022-12-01T18:11:50.044Z,28.27
2022-12-01T18:14:16.974Z,27.42
2022-12-01T18:16:44.292Z,22.20
2022-12-01T18:19:11.027Z,26.67
2022-12-01T18:21:38.584Z,22.92
2022-12-01T18:24:06.410Z,23.02
2022-12-01T18:26:33.592Z,22.23
2022-12-01T18:29:04.156Z,28.58
2022-12-01T18:31:31.647Z,29.00
2022-12-01T18:33:59.607Z,26.50
2022-12-01T18:36:26.745Z,19.83
2022-12-01T18:38:54.739Z,21.17
2022-12-01T18:41:21.598Z,20.75
2022-12-01T18:43:48.242Z,21.05
2022-12-01T18:46:17.741Z,21.05
2022-12-01T18:48:45.379Z,21.10
2022-12-01T18:51:13.282Z,23.35
2022-12-01T18:53:40.414Z,21.00
2022-12-01T18:56:11.771Z,18.90
2022-12-01T18:58:39.721Z,19.92
2022-12-01T19:01:20.547Z,19.65
2022-12-01T19:03:48.455Z,22.58
2022-12-01T19:06:15.141Z,23.50
2022-12-01T19:08:42.171Z,33.42
2022-12-01T19:11:09.070Z,57.03
2022-12-01T19:13:35.956Z,59.13
2022-12-01T19:16:06.487Z,36.80
2022-12-01T19:18:35.052Z,30.88
2022-12-01T19:21:01.834Z,29.40
2022-12-01T19:23:28.452Z,28.98
2022-12-01T19:25:55.660Z,31.33
2022-12-01T19:28:22.317Z,27.55
2022-12-01T19:30:49.381Z,23.33
2022-12-01T19:33:16.398Z,21.58
2022-12-01T19:35:44.449Z,21.60
2022-12-01T19:38:11.192Z,22.67
2022-12-01T19:40:38.378Z,23.77
2022-12-01T19:43:05.300Z,24.00
2022-12-01T19:45:32.088Z,24.83
2022-12-01T19:47:58.710Z,21.63
2022-12-01T19:50:26.645Z,23.25
2022-12-01T19:52:54.618Z,24.38
2022-12-01T19:55:21.588Z,24.38
2022-12-01T19:57:50.401Z,25.98
2022-12-01T20:00:18.049Z,26.17
2022-12-01T20:02:44.804Z,21.90
2022-12-01T20:05:11.463Z,24.52
2022-12-01T20:07:38.127Z,28.45
2022-12-01T20:10:06.915Z,22.17
2022-12-01T20:12:34.593Z,23.67
2022-12-01T20:15:01.440Z,24.50
2022-12-01T20:17:28.248Z,24.90
2022-12-01T20:19:54.849Z,29.27
2022-12-01T20:22:21.506Z,27.05
2022-12-01T20:24:48.449Z,32.50
2022-12-01T20:27:16.620Z,56.15
2022-12-01T20:29:43.347Z,39.92
2022-12-01T20:32:10.222Z,47.55
2022-12-01T20:34:36.922Z,31.58
2022-12-01T20:37:03.628Z,23.80
2022-12-01T20:39:30.966Z,28.20
2022-12-01T20:41:57.976Z,24.80
2022-12-01T20:44:25.967Z,24.77
2022-12-01T20:46:52.602Z,25.08
2022-12-01T20:49:20.732Z,26.42
2022-12-01T20:51:47.620Z,23.73
2022-12-01T20:54:30.905Z,25.25
2022-12-01T20:56:58.305Z,28.70
2022-12-01T20:59:27.106Z,28.73
2022-12-01T21:01:54.079Z,28.33
2022-12-01T21:04:20.882Z,25.77
2022-12-01T21:06:47.750Z,25.35
2022-12-01T21:09:14.329Z,29.45
2022-12-01T21:11:45.093Z,26.08
2022-12-01T21:14:17.984Z,26.15
2022-12-01T21:16:47.893Z,22.90
2022-12-01T21:19:20.993Z,30.67
2022-12-01T21:21:47.651Z,23.40
2022-12-01T21:24:15.971Z,26.60
2022-12-01T21:26:46.690Z,22.02
2022-12-01T21:29:18.918Z,26.02
2022-12-01T21:31:49.116Z,25.65
2022-12-01T21:34:18.807Z,23.75
2022-12-01T21:36:47.477Z,25.88
2022-12-01T21:39:18.659Z,26.92
2022-12-01T21:41:45.283Z,27.70
2022-12-01T21:44:14.923Z,28.83
2022-12-01T21:46:41.617Z,26.52
2022-12-01T21:49:17.535Z,25.65
2022-12-01T21:51:45.077Z,22.70
2022-12-01T21:54:15.425Z,23.23
2022-12-01T21:56:42.723Z,26.55
2022-12-01T21:59:15.815Z,27.15
2022-12-01T22:01:42.518Z,25.73
2022-12-01T22:04:15.623Z,23.83
2022-12-01T22:06:46.673Z,27.50
2022-12-01T22:09:19.445Z,23.42
2022-12-01T22:11:50.905Z,27.83
2022-12-01T22:14:20.766Z,27.77
2022-12-01T22:16:51.433Z,27.40
2022-12-01T22:19:27.643Z,26.92
2022-12-01T22:22:01.052Z,26.20
2022-12-01T22:24:32.597Z,27.52
2022-12-01T22:27:21.647Z,27.92
2022-12-01T22:29:51.140Z,27.67
2022-12-01T22:32:39.176Z,24.47
2022-12-01T22:35:22.438Z,24.60
2022-12-01T22:37:51.234Z,24.40
2022-12-01T22:40:36.327Z,28.20
2022-12-01T22:43:23.716Z,25.27
2022-12-01T22:45:59.615Z,24.27
2022-12-01T22:48:33.871Z,22.38
2022-12-01T22:51:16.841Z,26.20
2022-12-01T22:53:45.241Z,28.90
2022-12-01T22:56:25.698Z,29.50
2022-12-01T22:58:52.746Z,23.23
2022-12-01T23:01:24.578Z,27.33
2022-12-01T23:03:55.537Z,27.35
2022-12-01T23:07:02.006Z,26.23
2022-12-01T23:09:34.975Z,27.15
2022-12-01T23:12:16.671Z,24.58
2022-12-01T23:14:46.419Z,26.50
2022-12-01T23:17:16.838Z,27.52
2022-12-01T23:19:43.514Z,25.02
2022-12-01T23:22:10.923Z,23.95
2022-12-01T23:24:39.345Z,27.60
2022-12-01T23:27:06.105Z,27.02
2022-12-01T23:29:33.414Z,21.80
2022-12-01T23:32:00.091Z,26.27
2022-12-01T23:34:26.727Z,22.38
2022-12-01T23:36:53.509Z,27.10
2022-12-01T23:39:31.826Z,22.63
2022-12-01T23:41:59.824Z,23.58
2022-12-01T23:44:36.888Z,28.02
2022-12-01T23:47:08.262Z,23.65
2022-12-01T23:49:35.475Z,23.47
2022-12-01T23:52:03.330Z,25.70
2022-12-01T23:54:32.136Z,24.77
2022-12-01T23:57:02.606Z,25.27
2022-12-01T23:59:31.292Z,24.88
